Time;durP1;ratioP1;P1;durP2;ratioP2;P2;SDS_P1;SDS_P2;PMS_P1;PMS_P2;Temp;Humidity;BMP_temperature;BMP_pressure;BME280_temperature;BME280_humidity;BME280_pressure;Samples;Min_cycle;Max_cycle;Signal;HPM_P1;HPM_P2
2021/03/23 00:01:52;;;;;;;9.58;6.17;;;;;;;-1.19;77.40;98306.17;1794209;80;21296;-70
2021/03/23 00:04:20;;;;;;;10.63;7.90;;;;;;;-1.19;77.42;98310.13;1794421;79;20949;-70
2021/03/23 00:06:48;;;;;;;8.03;6.25;;;;;;;-1.17;77.34;98314.04;1794120;80;21203;-70
2021/03/23 00:09:18;;;;;;;9.68;6.58;;;;;;;-1.19;77.48;98312.76;1794172;79;20898;-70
2021/03/23 00:11:46;;;;;;;9.43;7.10;;;;;;;-1.19;77.40;98310.13;1794071;80;21000;-70
2021/03/23 00:14:14;;;;;;;8.45;6.17;;;;;;;-1.17;77.43;98307.45;1794092;80;21029;-71
2021/03/23 00:16:45;;;;;;;7.05;5.65;;;;;;;-1.17;77.36;98312.72;1728906;82;21469;-71
2021/03/23 00:19:14;;;;;;;9.40;6.47;;;;;;;-1.16;77.35;98311.38;1793675;79;21345;-70
2021/03/23 00:21:42;;;;;;;8.88;6.35;;;;;;;-1.16;77.21;98307.88;1794142;78;20937;-71
2021/03/23 00:24:13;;;;;;;5.87;5.22;;;;;;;-1.17;77.22;98316.22;1801965;79;20929;-71
2021/03/23 00:26:40;;;;;;;7.30;5.40;;;;;;;-1.17;77.18;98310.95;1728809;83;20914;-69
2021/03/23 00:29:11;;;;;;;9.05;6.45;;;;;;;-1.18;77.15;98313.19;1793965;80;20901;-71
2021/03/23 00:31:38;;;;;;;7.03;5.55;;;;;;;-1.17;77.08;98321.48;1798189;79;22121;-70
2021/03/23 00:34:08;;;;;;;6.72;4.78;;;;;;;-1.19;77.00;98318.03;1794272;80;20981;-72
2021/03/23 00:36:40;;;;;;;7.90;5.92;;;;;;;-1.19;77.06;98320.66;1801249;79;21004;-70
2021/03/23 00:39:11;;;;;;;8.53;5.95;;;;;;;-1.19;77.08;98318.03;1793597;80;20929;-68
2021/03/23 00:41:41;;;;;;;9.90;6.00;;;;;;;-1.17;76.99;98313.58;1796723;79;20922;-70
2021/03/23 00:44:11;;;;;;;8.35;5.85;;;;;;;-1.15;76.97;98314.44;1731117;83;22277;-72
2021/03/23 00:46:40;;;;;;;9.13;5.62;;;;;;;-1.13;76.86;98312.62;1731113;82;20944;-70
2021/03/23 00:49:09;;;;;;;8.75;5.72;;;;;;;-1.11;76.82;98308.17;1730470;83;20993;-70
2021/03/23 00:51:37;;;;;;;12.70;6.10;;;;;;;-1.08;76.82;98307.70;1731070;81;20993;-70
2021/03/23 00:54:07;;;;;;;7.42;4.80;;;;;;;-1.06;76.69;98309.84;1796691;79;20958;-70
2021/03/23 00:56:34;;;;;;;9.28;5.62;;;;;;;-1.02;76.55;98306.23;1796600;79;22174;-70
2021/03/23 00:59:02;;;;;;;10.38;6.10;;;;;;;-0.99;76.49;98311.44;1796453;78;20953;-69
2021/03/23 01:01:31;;;;;;;7.50;5.83;;;;;;;-0.96;76.49;98306.95;1731079;81;20937;-70
2021/03/23 01:04:00;;;;;;;9.00;5.65;;;;;;;-0.91;76.32;98305.05;1795740;79;20925;-70
2021/03/23 01:06:29;;;;;;;9.63;6.28;;;;;;;-0.87;76.24;98303.20;1731030;83;21085;-70
2021/03/23 01:08:59;;;;;;;7.45;6.10;;;;;;;-0.83;76.04;98304.02;1796637;79;22293;-70
2021/03/23 01:11:26;;;;;;;7.83;5.65;;;;;;;-0.79;75.79;98306.54;1730759;83;20953;-69
2021/03/23 01:13:57;;;;;;;7.75;5.60;;;;;;;-0.74;75.59;98302.00;1796809;79;20980;-70
2021/03/23 01:16:26;;;;;;;10.03;6.33;;;;;;;-0.72;75.51;98305.06;1796423;79;21008;-71
2021/03/23 01:18:53;;;;;;;9.15;5.72;;;;;;;-0.70;75.33;98296.19;1731283;82;20918;-70
2021/03/23 01:21:20;;;;;;;8.10;5.62;;;;;;;-0.69;75.14;98289.13;1797128;78;21359;-69
2021/03/23 01:23:50;;;;;;;8.30;6.05;;;;;;;-0.66;74.96;98283.78;1731879;82;20987;-69
2021/03/23 01:26:18;;;;;;;9.28;7.62;;;;;;;-0.63;74.80;98292.93;1730886;83;20941;-69
2021/03/23 01:28:46;;;;;;;8.30;6.45;;;;;;;-0.60;74.71;98288.89;1796655;78;21000;-70
2021/03/23 01:31:17;;;;;;;7.97;6.22;;;;;;;-0.58;74.53;98284.00;1731508;82;20989;-71
2021/03/23 01:33:44;;;;;;;6.65;5.08;;;;;;;-0.54;74.39;98291.38;1730500;83;21212;-70
2021/03/23 01:36:13;;;;;;;7.45;5.97;;;;;;;-0.53;74.21;98289.16;1795401;79;20929;-69
2021/03/23 01:38:41;;;;;;;10.30;5.95;;;;;;;-0.48;74.08;98283.30;1796459;78;20886;-70
2021/03/23 01:41:08;;;;;;;6.00;4.75;;;;;;;-0.45;74.00;98283.69;1736988;81;20996;-69
2021/03/23 01:43:37;;;;;;;7.80;5.37;;;;;;;-0.43;73.88;98287.99;1807826;79;21000;-70
2021/03/23 01:46:49;;;;;;;8.33;5.47;;;;;;;-0.39;73.54;98284.84;1741807;82;21382;-70
2021/03/23 01:49:21;;;;;;;9.73;5.85;;;;;;;-0.37;73.40;98290.94;1807616;79;20984;-70
2021/03/23 01:51:54;;;;;;;9.63;5.42;;;;;;;-0.36;73.17;98288.72;1801741;79;20933;-71
2021/03/23 01:54:26;;;;;;;9.25;6.87;;;;;;;-0.35;73.14;98290.89;1808083;79;20905;-69
2021/03/23 01:56:57;;;;;;;10.40;6.87;;;;;;;-0.35;73.10;98296.17;1741851;82;21040;-70
2021/03/23 01:59:25;;;;;;;10.80;7.28;;;;;;;-0.35;72.87;98293.53;1807981;79;21434;-70
2021/03/23 02:01:53;;;;;;;9.83;6.97;;;;;;;-0.35;72.83;98296.17;1807924;79;20949;-70
2021/03/23 02:04:23;;;;;;;10.75;7.37;;;;;;;-0.35;72.73;98292.22;1741623;82;20937;-70
2021/03/23 02:06:51;;;;;;;9.00;6.60;;;;;;;-0.38;72.64;98288.77;1807920;79;20925;-70
2021/03/23 02:09:31;;;;;;;8.88;6.50;;;;;;;-0.40;72.46;98290.55;1741332;82;20937;-70
2021/03/23 02:12:14;;;;;;;9.05;6.17;;;;;;;-0.39;72.41;98289.66;1807955;79;22267;-70
2021/03/23 02:14:46;;;;;;;9.48;7.37;;;;;;;-0.37;72.32;98298.39;1808507;78;20929;-69
2021/03/23 02:17:29;;;;;;;7.30;6.00;;;;;;;-0.36;72.33;98291.36;1719447;82;21568;-71
2021/03/23 02:20:01;;;;;;;9.60;7.20;;;;;;;-0.34;72.43;98296.59;1807742;79;20996;-70
2021/03/23 02:22:36;;;;;;;10.00;7.60;;;;;;;-0.30;72.40;98300.87;1808494;78;20921;-70
2021/03/23 02:25:09;;;;;;;8.83;6.83;;;;;;;-0.29;72.35;98299.97;1808351;79;22282;-70
2021/03/23 02:27:39;;;;;;;13.13;8.35;;;;;;;-0.26;72.29;98295.92;1741812;82;20949;-71
2021/03/23 02:30:12;;;;;;;8.65;6.95;;;;;;;-0.22;72.32;98298.88;1717836;82;20996;-70
2021/03/23 02:32:40;;;;;;;10.10;7.30;;;;;;;-0.21;72.34;98297.52;1806716;78;26450;-69
2021/03/23 02:35:11;;;;;;;11.00;6.75;;;;;;;-0.19;72.31;98293.08;1737570;82;20933;-71
2021/03/23 02:37:38;;;;;;;10.13;7.40;;;;;;;-0.16;72.19;98293.42;1807347;79;21374;-69
2021/03/23 02:40:08;;;;;;;8.40;7.17;;;;;;;-0.13;72.14;98295.98;1801940;79;21844;-70
2021/03/23 02:42:36;;;;;;;9.75;7.40;;;;;;;-0.09;72.18;98289.72;1730824;83;21426;-69
2021/03/23 02:45:06;;;;;;;8.85;7.08;;;;;;;-0.09;72.19;98281.80;1750542;82;20937;-69
2021/03/23 02:47:34;;;;;;;12.45;8.60;;;;;;;-0.08;72.17;98288.83;1803486;79;21015;-69
2021/03/23 02:50:05;;;;;;;12.93;9.03;;;;;;;-0.06;72.12;98282.19;1730569;83;21211;-70
2021/03/23 02:52:32;;;;;;;14.43;8.83;;;;;;;-0.05;72.05;98280.82;1797275;78;20929;-69
2021/03/23 02:55:04;;;;;;;11.48;8.43;;;;;;;-0.04;71.95;98271.11;1730864;82;21355;-70
2021/03/23 02:57:31;;;;;;;10.23;8.20;;;;;;;-0.02;71.61;98275.45;1796710;78;20937;-70
2021/03/23 02:59:58;;;;;;;13.72;8.55;;;;;;;0.02;71.56;98275.33;1730504;83;21450;-70
2021/03/23 03:02:29;;;;;;;10.10;8.23;;;;;;;0.04;71.50;98277.03;1796825;78;21247;-70
2021/03/23 03:04:56;;;;;;;10.55;8.70;;;;;;;0.07;71.43;98270.80;1796823;79;20973;-70
2021/03/23 03:07:24;;;;;;;10.15;8.10;;;;;;;0.10;71.24;98272.04;1796663;79;20921;-70
2021/03/23 03:09:52;;;;;;;12.07;7.65;;;;;;;0.12;71.22;98271.06;1796672;79;20919;-71
2021/03/23 03:12:20;;;;;;;11.03;7.58;;;;;;;0.15;71.07;98268.80;1796764;79;20913;-70
2021/03/23 03:14:47;;;;;;;11.88;7.55;;;;;;;0.16;71.10;98267.91;1796693;79;21210;-71
2021/03/23 03:17:16;;;;;;;10.90;7.05;;;;;;;0.20;70.95;98273.48;1804513;79;20980;-71
2021/03/23 03:19:44;;;;;;;11.30;7.50;;;;;;;0.23;70.87;98277.36;1731243;82;21052;-70
2021/03/23 03:22:12;;;;;;;10.23;6.85;;;;;;;0.24;70.85;98271.17;1796962;79;20877;-71
2021/03/23 03:24:41;;;;;;;9.85;7.30;;;;;;;0.27;70.84;98275.48;1796917;79;20914;-71
2021/03/23 03:27:09;;;;;;;11.33;7.30;;;;;;;0.27;70.84;98271.09;1804565;78;21388;-70
2021/03/23 03:29:37;;;;;;;8.70;7.58;;;;;;;0.28;70.85;98270.16;1796047;79;21008;-70
2021/03/23 03:32:07;;;;;;;11.38;6.72;;;;;;;0.30;70.74;98270.11;1796827;79;20997;-71
2021/03/23 03:34:35;;;;;;;10.88;7.10;;;;;;;0.32;70.77;98270.95;1796622;79;21012;-71
2021/03/23 03:37:05;;;;;;;9.85;7.58;;;;;;;0.32;70.76;98274.45;1796783;79;20921;-71
2021/03/23 03:39:35;;;;;;;9.08;6.67;;;;;;;0.32;70.79;98271.80;1796662;79;21371;-69
2021/03/23 03:42:03;;;;;;;10.88;6.97;;;;;;;0.34;70.76;98271.29;1796321;79;20927;-69
2021/03/23 03:44:31;;;;;;;11.68;8.25;;;;;;;0.34;70.70;98268.65;1730836;83;20926;-70
2021/03/23 03:47:00;;;;;;;8.98;6.95;;;;;;;0.35;70.79;98269.53;1730735;82;20957;-70
2021/03/23 03:49:28;;;;;;;9.38;6.37;;;;;;;0.34;70.68;98266.01;1796269;79;20973;-70
2021/03/23 03:51:56;;;;;;;8.90;6.40;;;;;;;0.35;70.62;98269.06;1730997;82;21370;-70
2021/03/23 03:54:24;;;;;;;11.18;6.90;;;;;;;0.36;70.58;98272.56;1730893;82;21295;-70
2021/03/23 03:56:52;;;;;;;8.93;5.85;;;;;;;0.35;70.57;98265.11;1796731;78;20929;-70
2021/03/23 03:59:20;;;;;;;12.37;7.53;;;;;;;0.37;70.57;98257.60;1796331;79;20917;-70
2021/03/23 04:01:49;;;;;;;12.53;6.85;;;;;;;0.37;70.59;98261.56;1730991;83;20942;-70
2021/03/23 04:04:17;;;;;;;11.48;7.45;;;;;;;0.35;70.52;98263.78;1731155;82;21353;-70
2021/03/23 04:06:44;;;;;;;7.78;5.53;;;;;;;0.37;70.37;98264.20;1796626;78;21024;-71
2021/03/23 04:09:13;;;;;;;8.73;6.20;;;;;;;0.38;70.36;98256.67;1731079;83;20937;-71
2021/03/23 04:11:41;;;;;;;8.25;6.20;;;;;;;0.35;70.32;98259.83;1796774;79;20917;-68
2021/03/23 04:14:09;;;;;;;11.48;6.62;;;;;;;0.37;70.29;98264.20;1731110;81;20897;-71
2021/03/23 04:16:38;;;;;;;10.13;7.50;;;;;;;0.35;70.07;98263.78;1731300;81;21024;-70
2021/03/23 04:19:06;;;;;;;12.13;7.80;;;;;;;0.37;70.07;98266.38;1796748;79;20984;-70
2021/03/23 04:21:34;;;;;;;8.00;5.92;;;;;;;0.37;70.06;98268.17;1731108;83;21378;-70
2021/03/23 04:24:03;;;;;;;8.80;6.47;;;;;;;0.36;70.04;98264.64;1796699;78;21044;-68
2021/03/23 04:26:31;;;;;;;11.05;6.85;;;;;;;0.37;69.95;98270.81;1730912;83;21354;-69
2021/03/23 04:28:59;;;;;;;8.58;5.83;;;;;;;0.37;69.93;98268.17;1730416;83;21402;-70
2021/03/23 04:31:38;;;;;;;7.75;5.12;;;;;;;0.35;69.82;98270.86;1730913;83;20942;-69
2021/03/23 04:34:06;;;;;;;8.35;4.35;;;;;;;0.35;69.75;98288.89;1796872;78;21004;-70
2021/03/23 04:36:35;;;;;;;6.65;4.75;;;;;;;0.37;69.82;98286.67;1796535;79;21589;-70
2021/03/23 04:39:05;;;;;;;5.87;3.60;;;;;;;0.39;69.79;98282.19;1796504;79;21016;-69
2021/03/23 04:41:32;;;;;;;5.12;3.72;;;;;;;0.40;69.81;98283.47;1796498;79;22287;-71
2021/03/23 04:44:01;;;;;;;7.17;4.67;;;;;;;0.43;69.78;98289.13;1796478;79;20922;-71
2021/03/23 04:46:28;;;;;;;6.97;3.77;;;;;;;0.43;69.85;98292.63;1730689;83;20953;-71
2021/03/23 04:48:56;;;;;;;6.65;4.45;;;;;;;0.46;69.72;98296.96;1796542;78;21048;-70
2021/03/23 04:51:28;;;;;;;8.38;4.70;;;;;;;0.48;69.52;98295.13;1731134;83;21468;-71
2021/03/23 04:54:08;;;;;;;6.60;4.78;;;;;;;0.49;69.46;98296.84;1731003;83;21442;-71
2021/03/23 04:56:41;;;;;;;6.92;4.42;;;;;;;0.51;69.32;98293.25;1731003;83;20957;-70
2021/03/23 04:59:09;;;;;;;9.35;4.45;;;;;;;0.53;69.20;98297.17;1796644;78;21463;-71
2021/03/23 05:01:38;;;;;;;6.08;4.50;;;;;;;0.52;68.96;98298.95;1796529;79;20977;-71
2021/03/23 05:04:14;;;;;;;8.35;5.00;;;;;;;0.56;68.90;98295.75;1730996;83;21556;-71
2021/03/23 05:06:41;;;;;;;5.50;4.25;;;;;;;0.58;68.76;98300.53;1797371;78;21361;-71
2021/03/23 05:09:09;;;;;;;6.55;4.75;;;;;;;0.59;68.58;98300.09;1730644;81;20965;-71
2021/03/23 05:11:37;;;;;;;8.13;4.80;;;;;;;0.62;68.40;98294.25;1730772;83;21029;-70
2021/03/23 05:14:06;;;;;;;7.90;5.05;;;;;;;0.63;68.29;98289.38;1796325;79;21016;-69
2021/03/23 05:16:36;;;;;;;7.87;5.60;;;;;;;0.67;68.11;98293.64;1796531;79;21557;-71
2021/03/23 05:19:05;;;;;;;11.57;6.25;;;;;;;0.68;67.71;98286.13;1796491;79;21384;-71
2021/03/23 05:21:32;;;;;;;9.88;5.70;;;;;;;0.72;67.70;98289.06;1730949;82;20941;-70
2021/03/23 05:24:01;;;;;;;10.75;6.45;;;;;;;0.76;67.48;98286.33;1731407;82;20925;-71
2021/03/23 05:26:29;;;;;;;9.53;5.65;;;;;;;0.79;66.92;98287.12;1798025;78;20973;-71
2021/03/23 05:28:57;;;;;;;8.75;6.72;;;;;;;0.83;66.81;98287.88;1730749;82;20985;-70
2021/03/23 05:31:25;;;;;;;9.48;5.87;;;;;;;0.86;66.56;98289.10;1796651;79;21242;-71
2021/03/23 05:33:54;;;;;;;12.13;7.33;;;;;;;0.87;66.03;98292.16;1730701;83;20965;-70
2021/03/23 05:36:23;;;;;;;10.60;7.67;;;;;;;0.91;66.25;98293.78;1730928;83;20979;-71
2021/03/23 05:38:52;;;;;;;12.45;7.85;;;;;;;0.94;65.99;98291.03;1730781;83;20942;-70
2021/03/23 05:41:45;;;;;;;10.82;6.83;;;;;;;0.97;65.90;98286.97;1731513;82;20938;-70
2021/03/23 05:44:36;;;;;;;14.87;7.15;;;;;;;1.00;65.82;98287.34;1808065;79;21362;-70
2021/03/23 05:47:13;;;;;;;9.68;7.20;;;;;;;1.05;65.62;98287.58;1807114;79;20936;-70
2021/03/23 05:49:55;;;;;;;13.08;6.25;;;;;;;1.09;65.82;98287.05;1807927;79;21354;-70
2021/03/23 05:52:37;;;;;;;8.70;6.37;;;;;;;1.13;65.37;98282.51;1808413;78;20873;-71
2021/03/23 05:55:39;;;;;;;10.72;5.65;;;;;;;1.15;65.12;98280.23;1790550;79;21451;-69
2021/03/23 05:58:27;;;;;;;11.12;5.80;;;;;;;1.19;64.67;98282.31;1808115;79;21196;-71
2021/03/23 06:01:21;;;;;;;10.82;6.30;;;;;;;1.20;64.37;98281.37;1808277;78;21004;-72
2021/03/23 06:04:17;;;;;;;10.30;5.90;;;;;;;1.24;64.24;98289.16;1801891;79;20968;-70
2021/03/23 06:07:01;;;;;;;8.33;6.15;;;;;;;1.26;64.29;98289.11;1807617;79;20992;-71
2021/03/23 06:09:34;;;;;;;16.62;6.97;;;;;;;1.30;64.23;98289.89;1808017;79;20988;-69
2021/03/23 06:12:32;;;;;;;10.20;6.17;;;;;;;1.32;64.07;98295.98;1741417;82;21295;-70
2021/03/23 06:15:31;;;;;;;12.68;7.28;;;;;;;1.32;63.40;98291.55;1807719;79;21497;-69
2021/03/23 06:18:22;;;;;;;9.05;6.33;;;;;;;1.34;63.66;98295.03;1816427;78;21367;-68
2021/03/23 06:21:15;;;;;;;11.43;6.75;;;;;;;1.37;62.92;98284.34;1816379;79;20881;-71
2021/03/23 06:24:08;;;;;;;11.48;6.90;;;;;;;1.39;62.87;98290.44;1807580;79;21031;-72
2021/03/23 06:26:53;;;;;;;9.08;7.03;;;;;;;1.44;63.00;98296.43;1775298;79;21391;-71
2021/03/23 06:29:54;;;;;;;9.58;6.70;;;;;;;1.49;62.88;98295.42;1741748;82;20981;-70
2021/03/23 06:32:51;;;;;;;9.75;5.78;;;;;;;1.53;62.51;98295.27;1806333;79;20933;-70
2021/03/23 06:35:31;;;;;;;9.55;7.42;;;;;;;1.58;62.49;98289.81;1807791;79;20985;-71
2021/03/23 06:38:04;;;;;;;11.20;6.58;;;;;;;1.64;62.18;98279.02;1806938;79;20889;-73
2021/03/23 06:40:36;;;;;;;9.58;6.70;;;;;;;1.70;61.87;98281.41;1741439;82;21391;-72
2021/03/23 06:43:24;;;;;;;11.03;6.45;;;;;;;1.70;61.03;98271.30;1799320;79;21379;-72
2021/03/23 06:46:33;;;;;;;9.33;5.62;;;;;;;1.74;61.08;98273.78;1730179;83;20945;-71
2021/03/23 06:49:26;;;;;;;9.65;7.05;;;;;;;1.78;61.04;98272.77;1797358;78;20874;-71
2021/03/23 06:52:01;;;;;;;15.03;7.60;;;;;;;1.82;60.86;98284.57;1731314;82;20950;-72
2021/03/23 06:54:40;;;;;;;8.43;6.25;;;;;;;1.87;61.17;98279.97;1797437;78;21419;-68
2021/03/23 06:57:18;;;;;;;10.82;5.78;;;;;;;1.92;61.67;98273.56;1709141;83;21554;-74
2021/03/23 07:00:00;;;;;;;10.45;6.30;;;;;;;1.97;61.07;98265.45;1730364;83;21556;-66
